Time;durP1;ratioP1;P1;durP2;ratioP2;P2;SDS_P1;SDS_P2;PMS_P1;PMS_P2;Temp;Humidity;BMP_temperature;BMP_pressure;BME280_temperature;BME280_humidity;BME280_pressure;Samples;Min_cycle;Max_cycle;Signal;HPM_P1;HPM_P2
2024/01/13 00:01:54;;;;;;;9.75;9.07;;;;;;;-145.48;100.00;64539.38;6288572;28;20036;-88
2024/01/13 00:04:56;;;;;;;12.10;9.38;;;;;;;-145.48;100.00;64539.38;6285953;28;20044;-88
2024/01/13 00:07:58;;;;;;;7.93;7.53;;;;;;;-145.48;100.00;64539.38;6280485;28;20163;-88
2024/01/13 00:11:00;;;;;;;7.93;7.53;;;;;;;-145.48;100.00;64539.38;6286848;28;20041;-88
2024/01/13 00:14:02;;;;;;;8.23;7.68;;;;;;;-145.48;100.00;64539.38;6287431;28;20048;-88
2024/01/13 00:17:04;;;;;;;8.45;7.95;;;;;;;-145.48;100.00;64539.38;6286387;28;20189;-88
2024/01/13 00:20:08;;;;;;;7.40;7.10;;;;;;;-145.48;100.00;64539.38;6280158;28;20495;-88
2024/01/13 00:23:10;;;;;;;7.93;7.53;;;;;;;-145.48;100.00;64539.38;6281604;28;20040;-88
2024/01/13 00:26:12;;;;;;;10.70;9.82;;;;;;;-145.48;100.00;64539.38;6287704;28;20040;-88
2024/01/13 00:29:14;;;;;;;9.32;8.63;;;;;;;-145.48;100.00;64539.38;6289176;28;20107;-88
2024/01/13 00:32:16;;;;;;;7.95;7.55;;;;;;;-145.48;100.00;64539.38;6281683;28;20032;-88
2024/01/13 00:35:18;;;;;;;8.25;7.70;;;;;;;-145.48;100.00;64539.38;6284278;28;20043;-88
2024/01/13 00:38:23;;;;;;;8.15;7.50;;;;;;;-145.48;100.00;64539.38;6273666;28;20063;-88
2024/01/13 00:41:36;;;;;;;7.50;7.13;;;;;;;-145.48;100.00;64539.38;6279144;28;20127;-88
2024/01/13 00:44:38;;;;;;;7.20;6.85;;;;;;;-145.48;100.00;64539.38;6280127;28;20052;-87
2024/01/13 00:47:40;;;;;;;9.13;8.30;;;;;;;-145.48;100.00;64539.38;6279951;28;20036;-88
2024/01/13 00:50:44;;;;;;;8.00;7.38;;;;;;;-145.48;100.00;64539.38;6269743;28;20045;-87
2024/01/13 00:53:46;;;;;;;8.15;7.72;;;;;;;-145.48;100.00;64539.38;6286887;28;20051;-87
2024/01/13 00:56:48;;;;;;;8.13;7.72;;;;;;;-145.48;100.00;64539.38;6280044;28;20066;-88
2024/01/13 00:59:50;;;;;;;8.35;7.65;;;;;;;-145.48;100.00;64539.38;6279542;28;20391;-88
2024/01/13 01:02:54;;;;;;;6.68;6.45;;;;;;;-145.48;100.00;64539.38;6282394;28;20045;-88
2024/01/13 01:05:57;;;;;;;7.03;6.75;;;;;;;-145.48;100.00;64539.38;6286352;28;20509;-88
2024/01/13 01:09:00;;;;;;;7.43;7.03;;;;;;;-145.48;100.00;64539.38;6285319;28;20324;-88
2024/01/13 01:12:02;;;;;;;7.93;7.53;;;;;;;-145.48;100.00;64539.38;6272687;28;20403;-88
2024/01/13 01:15:04;;;;;;;7.63;7.32;;;;;;;-145.48;100.00;64539.38;6280752;28;20040;-88
2024/01/13 01:18:09;;;;;;;7.13;6.82;;;;;;;-145.48;100.00;64539.38;6274338;28;20048;-88
2024/01/13 01:21:23;;;;;;;7.57;7.22;;;;;;;-145.48;100.00;64539.38;6278400;28;20037;-88
2024/01/13 01:24:24;;;;;;;7.32;7.03;;;;;;;-145.48;100.00;64539.38;6285797;28;20051;-88
2024/01/13 01:27:26;;;;;;;6.60;6.40;;;;;;;-145.48;100.00;64539.38;6280078;28;20033;-88
2024/01/13 01:30:28;;;;;;;7.38;7.07;;;;;;;-145.48;100.00;64539.38;6273865;28;20491;-88
2024/01/13 01:33:31;;;;;;;6.65;6.45;;;;;;;-145.48;100.00;64539.38;6275278;28;20483;-89
2024/01/13 01:36:34;;;;;;;6.85;6.55;;;;;;;-145.48;100.00;64539.38;6287865;28;20569;-88
2024/01/13 01:39:36;;;;;;;7.40;7.07;;;;;;;-145.48;100.00;64539.38;6285590;28;20521;-89
2024/01/13 01:42:39;;;;;;;7.72;7.22;;;;;;;-145.48;100.00;64539.38;6285824;28;20131;-89
2024/01/13 01:45:41;;;;;;;6.80;6.60;;;;;;;-145.48;100.00;64539.38;6285831;28;20048;-89
2024/01/13 01:48:45;;;;;;;6.40;6.00;;;;;;;-145.48;100.00;64539.38;6275209;28;20582;-89
2024/01/13 01:51:47;;;;;;;6.18;5.97;;;;;;;-145.48;100.00;64539.38;6274754;28;20040;-88
2024/01/13 01:54:50;;;;;;;8.00;7.65;;;;;;;-145.48;100.00;64539.38;6281001;28;20410;-89
2024/01/13 01:57:52;;;;;;;5.38;5.18;;;;;;;-145.48;100.00;64539.38;6274560;28;20509;-89
2024/01/13 02:00:54;;;;;;;7.75;7.40;;;;;;;-145.48;100.00;64539.38;6278190;28;20048;-89
2024/01/13 02:03:57;;;;;;;8.88;8.40;;;;;;;-145.48;100.00;64539.38;6282780;28;20044;-89
2024/01/13 02:07:00;;;;;;;5.75;5.50;;;;;;;-145.48;100.00;64539.38;6275094;28;20481;-89
2024/01/13 02:10:03;;;;;;;7.05;6.55;;;;;;;-145.48;100.00;64539.38;6273404;28;20052;-89
2024/01/13 02:13:08;;;;;;;6.93;6.65;;;;;;;-145.48;100.00;64539.38;6267295;28;20048;-89
2024/01/13 02:16:10;;;;;;;7.32;6.97;;;;;;;-145.48;100.00;64539.38;6283427;28;20519;-89
2024/01/13 02:19:12;;;;;;;6.43;6.20;;;;;;;-145.48;100.00;64539.38;6281004;28;20138;-89
2024/01/13 02:22:14;;;;;;;6.88;6.60;;;;;;;-145.48;100.00;64539.38;6278656;28;20472;-89
2024/01/13 02:25:16;;;;;;;6.53;6.30;;;;;;;-145.48;100.00;64539.38;6276074;28;20494;-89
2024/01/13 02:28:18;;;;;;;6.20;6.00;;;;;;;-145.48;100.00;64539.38;6270833;28;20571;-89
2024/01/13 02:31:40;;;;;;;8.20;7.60;;;;;;;-145.48;100.00;64539.38;6278787;28;20460;-89
2024/01/13 02:34:42;;;;;;;7.50;6.90;;;;;;;-145.48;100.00;64539.38;6280426;28;20150;-90
2024/01/13 02:37:47;;;;;;;5.95;5.75;;;;;;;-145.48;100.00;64539.38;6288612;28;20044;-89
2024/01/13 02:40:49;;;;;;;7.95;7.65;;;;;;;-145.48;100.00;64539.38;6287712;28;20481;-89
2024/01/13 02:43:52;;;;;;;6.53;6.22;;;;;;;-145.48;100.00;64539.38;6276654;28;20045;-89
2024/01/13 02:46:54;;;;;;;7.50;6.97;;;;;;;-145.48;100.00;64539.38;6280545;28;20056;-89
2024/01/13 02:49:56;;;;;;;6.93;6.63;;;;;;;-145.48;100.00;64539.38;6283703;28;20041;-89
2024/01/13 02:52:58;;;;;;;6.18;5.97;;;;;;;-145.48;100.00;64539.38;6278757;28;20406;-89
2024/01/13 02:56:00;;;;;;;6.95;6.50;;;;;;;-145.48;100.00;64539.38;6289068;28;20395;-89
2024/01/13 02:59:02;;;;;;;6.78;6.45;;;;;;;-145.48;100.00;64539.38;6269994;28;20222;-89
2024/01/13 03:02:05;;;;;;;5.53;5.32;;;;;;;-145.48;100.00;64539.38;6269557;28;20194;-89
2024/01/13 03:05:09;;;;;;;6.63;6.43;;;;;;;-145.48;100.00;64539.38;6287936;28;20206;-89
2024/01/13 03:08:11;;;;;;;8.27;7.68;;;;;;;-145.48;100.00;64539.38;6289122;28;20499;-89
2024/01/13 03:11:28;;;;;;;6.30;6.03;;;;;;;-145.48;100.00;64539.38;6278360;28;20044;-90
2024/01/13 03:14:30;;;;;;;6.75;6.45;;;;;;;-145.48;100.00;64539.38;6282652;28;20036;-90
2024/01/13 03:17:32;;;;;;;7.28;6.97;;;;;;;-145.48;100.00;64539.38;6283060;28;20032;-89
2024/01/13 03:20:34;;;;;;;6.95;6.65;;;;;;;-145.48;100.00;64539.38;6282184;28;20044;-89
2024/01/13 03:23:37;;;;;;;6.50;6.20;;;;;;;-145.48;100.00;64539.38;6288033;28;20465;-90
2024/01/13 03:26:39;;;;;;;6.97;6.32;;;;;;;-145.48;100.00;64539.38;6293274;28;20138;-89
2024/01/13 03:29:41;;;;;;;7.25;6.95;;;;;;;-145.48;100.00;64539.38;6284801;28;20078;-89
2024/01/13 03:32:43;;;;;;;7.53;6.93;;;;;;;-145.48;100.00;64539.38;6288371;28;20087;-89
2024/01/13 03:35:45;;;;;;;8.75;8.00;;;;;;;-145.48;100.00;64539.38;6290921;28;20047;-89
2024/01/13 03:38:47;;;;;;;6.45;6.25;;;;;;;-145.48;100.00;64539.38;6289117;28;20048;-90
2024/01/13 03:41:50;;;;;;;6.57;6.28;;;;;;;-145.48;100.00;64539.38;6282382;28;20167;-89
2024/01/13 03:44:52;;;;;;;6.63;6.22;;;;;;;-145.48;100.00;64539.38;6289428;28;20051;-89
2024/01/13 03:47:54;;;;;;;6.40;6.13;;;;;;;-145.48;100.00;64539.38;6287309;28;20033;-89
2024/01/13 03:50:56;;;;;;;6.57;6.18;;;;;;;-145.48;100.00;64539.38;6289051;28;20042;-89
2024/01/13 03:53:58;;;;;;;6.70;6.40;;;;;;;-145.48;100.00;64539.38;6279461;28;20037;-89
2024/01/13 03:57:00;;;;;;;5.30;5.10;;;;;;;-145.48;100.00;64539.38;6282965;28;20040;-89
2024/01/13 04:00:03;;;;;;;6.43;6.07;;;;;;;-145.48;100.00;64539.38;6270409;28;20490;-89
2024/01/13 04:03:05;;;;;;;6.22;5.93;;;;;;;-145.48;100.00;64539.38;6274226;28;20048;-89
2024/01/13 04:06:07;;;;;;;6.15;5.95;;;;;;;-145.48;100.00;64539.38;6282753;28;20123;-88
2024/01/13 04:09:10;;;;;;;6.20;5.82;;;;;;;-145.48;100.00;64539.38;6282128;28;20043;-89
2024/01/13 04:12:12;;;;;;;6.70;6.40;;;;;;;-145.48;100.00;64539.38;6289984;28;20048;-89
2024/01/13 04:15:14;;;;;;;6.25;6.03;;;;;;;-145.48;100.00;64539.38;6287337;28;20071;-89
2024/01/13 04:18:16;;;;;;;7.30;7.00;;;;;;;-145.48;100.00;64539.38;6286479;28;20098;-89
2024/01/13 04:21:19;;;;;;;5.97;5.78;;;;;;;-145.48;100.00;64539.38;6286854;28;20042;-89
2024/01/13 04:24:24;;;;;;;6.15;5.95;;;;;;;-145.48;100.00;64539.38;6277410;28;20570;-89
2024/01/13 04:27:26;;;;;;;5.60;5.40;;;;;;;-145.48;100.00;64539.38;6272836;28;20464;-89
2024/01/13 04:30:28;;;;;;;6.95;6.68;;;;;;;-145.48;100.00;64539.38;6261422;28;20045;-88
2024/01/13 04:33:30;;;;;;;5.97;5.78;;;;;;;-145.48;100.00;64539.38;6289090;28;20144;-89
2024/01/13 04:36:32;;;;;;;6.40;5.93;;;;;;;-145.48;100.00;64539.38;6287262;28;20049;-89
2024/01/13 04:39:34;;;;;;;5.85;5.65;;;;;;;-145.48;100.00;64539.38;6274928;28;20040;-89
2024/01/13 04:42:36;;;;;;;6.35;6.10;;;;;;;-145.48;100.00;64539.38;6288914;28;20503;-89
2024/01/13 04:45:38;;;;;;;6.80;6.50;;;;;;;-145.48;100.00;64539.38;6284080;28;20040;-89
2024/01/13 04:48:40;;;;;;;5.88;5.68;;;;;;;-145.48;100.00;64539.38;6285813;28;20050;-90
2024/01/13 04:51:42;;;;;;;6.35;6.15;;;;;;;-145.48;100.00;64539.38;6287085;28;20056;-89
2024/01/13 04:54:44;;;;;;;6.82;6.53;;;;;;;-145.48;100.00;64539.38;6285625;28;20335;-90
2024/01/13 04:57:47;;;;;;;5.53;5.32;;;;;;;-145.48;100.00;64539.38;6276684;28;20129;-89
2024/01/13 05:00:49;;;;;;;6.47;6.28;;;;;;;-145.48;100.00;64539.38;6275856;28;20044;-89
2024/01/13 05:03:51;;;;;;;6.13;5.93;;;;;;;-145.48;100.00;64539.38;6287092;28;20039;-89
2024/01/13 05:06:53;;;;;;;6.10;5.90;;;;;;;-145.48;100.00;64539.38;6277783;28;20048;-89
2024/01/13 05:09:55;;;;;;;5.78;5.57;;;;;;;-145.48;100.00;64539.38;6280108;28;20032;-89
2024/01/13 05:12:57;;;;;;;5.70;5.50;;;;;;;-145.48;100.00;64539.38;6287199;28;20502;-89
2024/01/13 05:15:59;;;;;;;5.60;5.40;;;;;;;-145.48;100.00;64539.38;6288306;28;20067;-89
2024/01/13 05:19:02;;;;;;;5.93;5.72;;;;;;;-145.48;100.00;64539.38;6277951;28;20095;-89
2024/01/13 05:22:04;;;;;;;5.90;5.70;;;;;;;-145.48;100.00;64539.38;6286601;28;20036;-89
2024/01/13 05:25:08;;;;;;;6.03;5.75;;;;;;;-145.48;100.00;64539.38;6286841;28;20070;-89
2024/01/13 05:28:09;;;;;;;5.80;5.60;;;;;;;-145.48;100.00;64539.38;6285880;28;20048;-89
2024/01/13 05:31:11;;;;;;;6.88;6.60;;;;;;;-145.48;100.00;64539.38;6283329;28;20051;-89
2024/01/13 05:34:13;;;;;;;6.40;6.13;;;;;;;-145.48;100.00;64539.38;6287559;28;20060;-89
2024/01/13 05:37:16;;;;;;;6.68;6.47;;;;;;;-145.48;100.00;64539.38;6290003;28;20061;-89
2024/01/13 05:40:19;;;;;;;6.60;6.40;;;;;;;-145.48;100.00;64539.38;6281529;28;20043;-89
2024/01/13 05:43:23;;;;;;;6.22;6.03;;;;;;;-145.48;100.00;64539.38;6283804;28;20041;-89
2024/01/13 05:46:24;;;;;;;6.53;6.22;;;;;;;-145.48;100.00;64539.38;6280698;28;20424;-90
2024/01/13 05:49:26;;;;;;;6.55;6.25;;;;;;;-145.48;100.00;64539.38;6281143;28;20044;-89
2024/01/13 05:52:28;;;;;;;5.82;5.63;;;;;;;-145.48;100.00;64539.38;6278146;28;20051;-89
2024/01/13 05:55:30;;;;;;;6.07;5.88;;;;;;;-145.48;100.00;64539.38;6285886;28;20037;-90
2024/01/13 05:58:33;;;;;;;5.55;5.35;;;;;;;-145.48;100.00;64539.38;6279926;28;20040;-89
2024/01/13 06:01:35;;;;;;;6.03;5.82;;;;;;;-145.48;100.00;64539.38;6278437;28;20040;-89
2024/01/13 06:04:36;;;;;;;6.35;6.15;;;;;;;-145.48;100.00;64539.38;6284747;28;20051;-89
2024/01/13 06:07:38;;;;;;;6.30;6.10;;;;;;;-145.48;100.00;64539.38;6265212;28;20048;-89
2024/01/13 06:10:45;;;;;;;5.63;5.43;;;;;;;-145.48;100.00;64539.38;6282401;28;20087;-89
2024/01/13 06:13:48;;;;;;;6.18;5.90;;;;;;;-145.48;100.00;64539.38;6282261;28;20053;-90
2024/01/13 06:16:49;;;;;;;5.65;5.45;;;;;;;-145.48;100.00;64539.38;6279395;28;20151;-90
2024/01/13 06:19:51;;;;;;;6.60;6.40;;;;;;;-145.48;100.00;64539.38;6282083;28;20045;-90
2024/01/13 06:22:53;;;;;;;5.68;5.47;;;;;;;-145.48;100.00;64539.38;6278468;28;20052;-90
2024/01/13 06:25:55;;;;;;;5.82;5.63;;;;;;;-145.48;100.00;64539.38;6283993;28;20410;-90
2024/01/13 06:28:57;;;;;;;5.55;5.35;;;;;;;-145.48;100.00;64539.38;6286058;28;20453;-90
2024/01/13 06:31:58;;;;;;;6.13;5.93;;;;;;;-145.48;100.00;64539.38;6277697;28;20404;-90
2024/01/13 06:35:00;;;;;;;6.07;5.88;;;;;;;-145.48;100.00;64539.38;6276913;28;20171;-90
2024/01/13 06:38:03;;;;;;;6.88;6.68;;;;;;;-145.48;100.00;64539.38;6280752;28;20143;-90
2024/01/13 06:41:05;;;;;;;6.35;6.05;;;;;;;-145.48;100.00;64539.38;6281713;28;20482;-90
2024/01/13 06:44:07;;;;;;;7.30;6.95;;;;;;;-145.48;100.00;64539.38;6271433;28;20403;-90
2024/01/13 06:47:09;;;;;;;5.70;5.50;;;;;;;-145.48;100.00;64539.38;6278298;28;20133;-89
2024/01/13 06:50:11;;;;;;;6.07;5.88;;;;;;;-145.48;100.00;64539.38;6271555;28;20482;-90
2024/01/13 06:53:14;;;;;;;6.07;5.88;;;;;;;-145.48;100.00;64539.38;6281394;28;20052;-90
2024/01/13 06:56:15;;;;;;;5.30;5.10;;;;;;;-145.48;100.00;64539.38;6285101;28;20513;-89
2024/01/13 06:59:18;;;;;;;6.38;6.03;;;;;;;-145.48;100.00;64539.38;6266724;28;20521;-89
2024/01/13 07:02:22;;;;;;;5.68;5.47;;;;;;;-145.48;100.00;64539.38;6283448;28;20041;-90
2024/01/13 07:05:24;;;;;;;6.03;5.82;;;;;;;-145.48;100.00;64539.38;6284145;28;20127;-89
2024/01/13 07:08:26;;;;;;;6.20;6.00;;;;;;;-145.48;100.00;64539.38;6288515;28;20094;-90
2024/01/13 07:11:28;;;;;;;5.90;5.70;;;;;;;-145.48;100.00;64539.38;6278365;28;20072;-89
2024/01/13 07:14:31;;;;;;;6.93;6.65;;;;;;;-145.48;100.00;64539.38;6282924;28;20499;-89
2024/01/13 07:17:34;;;;;;;6.72;6.43;;;;;;;-145.48;100.00;64539.38;6291487;28;20040;-90
2024/01/13 07:20:36;;;;;;;5.97;5.78;;;;;;;-145.48;100.00;64539.38;6283223;28;20162;-89
2024/01/13 07:23:38;;;;;;;6.03;5.82;;;;;;;-145.48;100.00;64539.38;6275692;28;20044;-90
2024/01/13 07:26:43;;;;;;;5.65;5.45;;;;;;;-145.48;100.00;64539.38;6278455;28;20176;-89
2024/01/13 07:29:45;;;;;;;5.25;5.05;;;;;;;-145.48;100.00;64539.38;6276337;28;20166;-89
2024/01/13 07:32:56;;;;;;;5.50;5.30;;;;;;;-145.48;100.00;64539.38;6279986;28;20127;-89
2024/01/13 07:35:58;;;;;;;5.88;5.68;;;;;;;-145.48;100.00;64539.38;6285340;28;20051;-89
2024/01/13 07:39:00;;;;;;;6.38;6.18;;;;;;;-145.48;100.00;64539.38;6284833;28;20560;-89
2024/01/13 07:42:03;;;;;;;6.80;6.50;;;;;;;-145.48;100.00;64539.38;6296525;28;20553;-89
2024/01/13 07:45:06;;;;;;;5.95;5.75;;;;;;;-145.48;100.00;64539.38;6264982;28;20087;-90
2024/01/13 07:48:08;;;;;;;5.68;5.47;;;;;;;-145.48;100.00;64539.38;6289572;28;20114;-89
2024/01/13 07:51:10;;;;;;;5.03;4.88;;;;;;;-145.48;100.00;64539.38;6284511;28;20551;-90
2024/01/13 07:54:23;;;;;;;5.70;5.50;;;;;;;-145.48;100.00;64539.38;6281542;28;20567;-90
2024/01/13 07:57:28;;;;;;;6.50;6.20;;;;;;;-145.48;100.00;64539.38;6287610;28;20402;-90
2024/01/13 08:00:31;;;;;;;6.30;6.03;;;;;;;-145.48;100.00;64539.38;6283479;28;20045;-89
2024/01/13 08:03:33;;;;;;;6.35;6.15;;;;;;;-145.48;100.00;64539.38;6283548;28;20048;-89
2024/01/13 08:06:36;;;;;;;7.13;6.82;;;;;;;-145.48;100.00;64539.38;6276366;28;20033;-89
2024/01/13 08:09:40;;;;;;;5.85;5.60;;;;;;;-145.48;100.00;64539.38;6281672;28;20166;-89
2024/01/13 08:12:42;;;;;;;5.95;5.75;;;;;;;-145.48;100.00;64539.38;6270603;28;20487;-89
2024/01/13 08:15:44;;;;;;;5.50;5.30;;;;;;;-145.48;100.00;64539.38;6280373;28;20498;-90
2024/01/13 08:18:47;;;;;;;6.93;6.63;;;;;;;-145.48;100.00;64539.38;6283585;28;20040;-90
2024/01/13 08:21:50;;;;;;;6.15;5.95;;;;;;;-145.48;100.00;64539.38;6289092;28;20067;-89
2024/01/13 08:24:53;;;;;;;6.18;5.97;;;;;;;-145.48;100.00;64539.38;6281752;28;20485;-90
2024/01/13 08:27:55;;;;;;;5.75;5.55;;;;;;;-145.48;100.00;64539.38;6272126;28;20535;-90
2024/01/13 08:30:57;;;;;;;6.18;5.97;;;;;;;-145.48;100.00;64539.38;6279700;28;20113;-90
2024/01/13 08:33:58;;;;;;;5.78;5.57;;;;;;;-145.48;100.00;64539.38;6275242;28;20045;-89
2024/01/13 08:37:01;;;;;;;6.03;5.82;;;;;;;-145.48;100.00;64539.38;6283214;28;20039;-90
2024/01/13 08:40:04;;;;;;;5.85;5.65;;;;;;;-145.48;100.00;64539.38;6277128;28;20354;-90
2024/01/13 08:43:08;;;;;;;5.65;5.45;;;;;;;-145.48;100.00;64539.38;6273864;28;20083;-90
2024/01/13 08:46:11;;;;;;;7.07;6.78;;;;;;;-145.48;100.00;64539.38;6282999;28;20039;-89
2024/01/13 08:49:13;;;;;;;7.10;6.80;;;;;;;-145.48;100.00;64539.38;6274766;28;20069;-88
2024/01/13 08:52:15;;;;;;;6.63;6.32;;;;;;;-145.48;100.00;64539.38;6286165;28;20583;-89
2024/01/13 08:55:18;;;;;;;6.38;6.18;;;;;;;-145.48;100.00;64539.38;6277136;28;20091;-90
2024/01/13 08:58:20;;;;;;;6.95;6.65;;;;;;;-145.48;100.00;64539.38;6277057;28;20040;-90
2024/01/13 09:01:22;;;;;;;6.85;6.55;;;;;;;-145.48;100.00;64539.38;6283255;28;20032;-90
2024/01/13 09:04:37;;;;;;;7.68;7.22;;;;;;;-145.48;100.00;64539.38;6285226;28;20048;-90
2024/01/13 09:07:39;;;;;;;6.75;6.45;;;;;;;-145.48;100.00;64539.38;6278394;28;20029;-86
2024/01/13 09:10:41;;;;;;;6.63;6.35;;;;;;;-145.48;100.00;64539.38;6281224;28;20120;-87
2024/01/13 09:13:43;;;;;;;6.55;6.35;;;;;;;-145.48;100.00;64539.38;6275861;28;20091;-87
2024/01/13 09:16:45;;;;;;;8.57;8.07;;;;;;;-145.48;100.00;64539.38;6274951;28;20048;-87
2024/01/13 09:19:47;;;;;;;6.40;6.10;;;;;;;-145.48;100.00;64539.38;6280027;28;20102;-87
2024/01/13 09:22:49;;;;;;;7.70;7.40;;;;;;;-145.48;100.00;64539.38;6273969;28;20101;-88
2024/01/13 09:25:51;;;;;;;8.45;8.05;;;;;;;-145.48;100.00;64539.38;6282082;28;20127;-86
2024/01/13 09:28:53;;;;;;;7.28;6.97;;;;;;;-145.48;100.00;64539.38;6273753;28;20044;-86
2024/01/13 09:31:55;;;;;;;6.45;6.25;;;;;;;-145.48;100.00;64539.38;6279529;28;20041;-87
2024/01/13 09:34:57;;;;;;;7.45;7.20;;;;;;;-145.48;100.00;64539.38;6277604;28;20053;-87
2024/01/13 09:38:00;;;;;;;8.00;7.70;;;;;;;-145.48;100.00;64539.38;6286473;28;20051;-86
2024/01/13 09:41:02;;;;;;;7.55;7.25;;;;;;;-145.48;100.00;64539.38;6280751;28;20037;-87
2024/01/13 09:44:32;;;;;;;6.88;6.57;;;;;;;-145.48;100.00;64539.38;6270825;28;20036;-88
2024/01/13 09:47:34;;;;;;;5.63;5.43;;;;;;;-145.48;100.00;64539.38;6277106;28;20500;-87
2024/01/13 09:50:40;;;;;;;7.28;6.97;;;;;;;-145.48;100.00;64539.38;6273118;28;20039;-87
2024/01/13 09:53:48;;;;;;;8.32;7.47;;;;;;;-145.48;100.00;64539.38;6278742;28;20095;-86
2024/01/13 09:56:51;;;;;;;7.90;7.32;;;;;;;-145.48;100.00;64539.38;6272802;28;20051;-86
2024/01/13 09:59:54;;;;;;;6.95;6.68;;;;;;;-145.48;100.00;64539.38;6277198;28;20123;-87
2024/01/13 10:02:57;;;;;;;6.82;6.53;;;;;;;-145.48;100.00;64539.38;6275046;28;20517;-87
2024/01/13 10:05:59;;;;;;;6.75;6.35;;;;;;;-145.48;100.00;64539.38;6278299;28;20032;-87
2024/01/13 10:09:02;;;;;;;6.88;6.55;;;;;;;-145.48;100.00;64539.38;6276821;28;20502;-87
2024/01/13 10:12:24;;;;;;;7.28;6.97;;;;;;;-145.48;100.00;64539.38;6285058;28;20150;-87
2024/01/13 10:15:26;;;;;;;7.22;6.93;;;;;;;-145.48;100.00;64539.38;6274283;28;20543;-89
2024/01/13 10:18:30;;;;;;;7.20;6.90;;;;;;;-145.48;100.00;64539.38;6272816;28;20040;-87
2024/01/13 10:21:33;;;;;;;7.32;6.88;;;;;;;-145.48;100.00;64539.38;6274441;28;20479;-88
2024/01/13 10:24:41;;;;;;;7.47;7.07;;;;;;;-145.48;100.00;64539.38;6278801;28;20079;-87
2024/01/13 10:27:45;;;;;;;8.77;8.15;;;;;;;-145.48;100.00;64539.38;6274965;28;20048;-87
2024/01/13 10:30:50;;;;;;;7.85;7.55;;;;;;;-145.48;100.00;64539.38;6272634;28;20040;-87
2024/01/13 10:33:54;;;;;;;7.22;6.93;;;;;;;-145.48;100.00;64539.38;6279448;28;20051;-88
2024/01/13 10:37:08;;;;;;;8.57;8.18;;;;;;;-145.48;100.00;64539.38;6279093;28;20048;-88
2024/01/13 10:40:10;;;;;;;7.20;6.90;;;;;;;-145.48;100.00;64539.38;6276488;28;20044;-88
2024/01/13 10:43:14;;;;;;;7.00;6.70;;;;;;;-145.48;100.00;64539.38;6282170;28;20071;-88
2024/01/13 10:46:22;;;;;;;7.70;7.40;;;;;;;-145.48;100.00;64539.38;6269695;28;20589;-88
2024/01/13 10:49:33;;;;;;;7.70;7.35;;;;;;;-145.48;100.00;64539.38;6275691;28;20482;-86
2024/01/13 10:53:12;;;;;;;6.28;6.07;;;;;;;-145.48;100.00;64539.38;6272117;28;20094;-88
2024/01/13 10:56:16;;;;;;;7.65;7.25;;;;;;;-145.48;100.00;64539.38;6267364;28;20056;-88
2024/01/13 10:59:19;;;;;;;7.50;7.20;;;;;;;-145.48;100.00;64539.38;6282141;28;20060;-88
2024/01/13 11:02:22;;;;;;;7.20;6.85;;;;;;;-145.48;100.00;64539.38;6274427;28;20040;-89
2024/01/13 11:05:28;;;;;;;7.40;7.10;;;;;;;-145.48;100.00;64539.38;6262738;28;20033;-88
2024/01/13 11:08:31;;;;;;;7.60;7.03;;;;;;;-145.48;100.00;64539.38;6276397;28;20048;-88
2024/01/13 11:11:40;;;;;;;8.43;8.02;;;;;;;-145.48;100.00;64539.38;6269827;28;20120;-87
2024/01/13 11:15:03;;;;;;;7.85;7.45;;;;;;;-145.48;100.00;64539.38;6277133;28;20040;-88
2024/01/13 11:18:06;;;;;;;7.65;7.28;;;;;;;-145.48;100.00;64539.38;6278293;28;20111;-88
2024/01/13 11:21:10;;;;;;;7.07;6.78;;;;;;;-145.48;100.00;64539.38;6278254;28;20373;-87
2024/01/13 11:24:13;;;;;;;7.25;6.95;;;;;;;-145.48;100.00;64539.38;6270854;28;20046;-87
2024/01/13 11:27:16;;;;;;;7.40;7.10;;;;;;;-145.48;100.00;64539.38;6282644;28;20048;-88
2024/01/13 11:30:38;;;;;;;6.95;6.65;;;;;;;-145.48;100.00;64539.38;6273686;28;20042;-87
2024/01/13 11:33:43;;;;;;;7.90;6.90;;;;;;;-145.48;100.00;64539.38;6275568;28;20041;-87
2024/01/13 11:36:57;;;;;;;6.20;6.00;;;;;;;-145.48;100.00;64539.38;6290784;28;20045;-88
2024/01/13 11:40:07;;;;;;;6.45;6.18;;;;;;;-145.48;100.00;64539.38;6278929;28;20043;-87
2024/01/13 11:43:21;;;;;;;7.00;6.70;;;;;;;-145.48;100.00;64539.38;6280535;28;20310;-88
2024/01/13 11:46:23;;;;;;;6.63;6.40;;;;;;;-145.48;100.00;64539.38;6276115;28;20040;-87
2024/01/13 11:49:44;;;;;;;6.78;6.47;;;;;;;-145.48;100.00;64539.38;6285061;28;20047;-88
2024/01/13 11:52:46;;;;;;;6.95;6.65;;;;;;;-145.48;100.00;64539.38;6286979;28;20051;-88
2024/01/13 11:55:49;;;;;;;7.65;7.25;;;;;;;-145.48;100.00;64539.38;6285274;28;20391;-88
2024/01/13 11:58:52;;;;;;;6.85;6.55;;;;;;;-145.48;100.00;64539.38;6282360;28;20033;-88
2024/01/13 12:01:56;;;;;;;6.30;6.05;;;;;;;-145.48;100.00;64539.38;6270866;28;20040;-88
2024/01/13 12:04:58;;;;;;;6.90;6.60;;;;;;;-145.48;100.00;64539.38;6277050;28;20036;-88
2024/01/13 12:08:04;;;;;;;6.38;6.18;;;;;;;-145.48;100.00;64539.38;6277916;28;20083;-89
2024/01/13 12:11:06;;;;;;;6.20;5.95;;;;;;;-145.48;100.00;64539.38;6270335;28;20923;-89
2024/01/13 12:14:08;;;;;;;6.38;6.18;;;;;;;-145.48;100.00;64539.38;6277347;28;20399;-87
2024/01/13 12:17:10;;;;;;;5.88;5.68;;;;;;;-145.48;100.00;64539.38;6272651;28;20427;-88
2024/01/13 12:20:12;;;;;;;6.65;6.35;;;;;;;-145.48;100.00;64539.38;6274759;28;20163;-87
2024/01/13 12:23:15;;;;;;;6.90;6.60;;;;;;;-145.48;100.00;64539.38;6275837;28;20112;-88
2024/01/13 12:26:17;;;;;;;7.38;6.88;;;;;;;-145.48;100.00;64539.38;6279868;28;20041;-87
2024/01/13 12:29:21;;;;;;;7.00;6.70;;;;;;;-145.48;100.00;64539.38;6281075;28;20037;-88
2024/01/13 12:32:29;;;;;;;6.65;6.28;;;;;;;-145.48;100.00;64539.38;6274494;28;20036;-87
2024/01/13 12:35:52;;;;;;;7.13;6.70;;;;;;;-145.48;100.00;64539.38;6283066;28;20140;-87
2024/01/13 12:38:54;;;;;;;7.05;6.75;;;;;;;-145.48;100.00;64539.38;6283193;28;20487;-87
2024/01/13 12:41:56;;;;;;;6.10;5.85;;;;;;;-145.48;100.00;64539.38;6276023;28;20041;-88
2024/01/13 12:44:58;;;;;;;7.93;7.55;;;;;;;-145.48;100.00;64539.38;6269555;28;20044;-88
2024/01/13 12:48:01;;;;;;;7.80;7.40;;;;;;;-145.48;100.00;64539.38;6281071;28;20040;-87
2024/01/13 12:51:12;;;;;;;6.18;5.97;;;;;;;-145.48;100.00;64539.38;6281357;28;20047;-88
2024/01/13 12:54:15;;;;;;;7.00;6.70;;;;;;;-145.48;100.00;64539.38;6278591;28;20070;-87
2024/01/13 12:57:17;;;;;;;7.30;7.00;;;;;;;-145.48;100.00;64539.38;6285544;28;20041;-87
2024/01/13 13:00:19;;;;;;;8.60;8.05;;;;;;;-145.48;100.00;64539.38;6262028;28;20094;-89
2024/01/13 13:03:21;;;;;;;10.00;9.40;;;;;;;-145.48;100.00;64539.38;6277469;28;20161;-87
2024/01/13 13:06:23;;;;;;;7.65;7.00;;;;;;;-145.48;100.00;64539.38;6278690;28;20584;-88
2024/01/13 13:09:25;;;;;;;9.73;9.05;;;;;;;-145.48;100.00;64539.38;6280491;28;20041;-88
2024/01/13 13:12:28;;;;;;;11.35;10.35;;;;;;;-145.48;100.00;64539.38;6283104;28;20099;-88
2024/01/13 13:15:30;;;;;;;10.07;9.32;;;;;;;-145.48;100.00;64539.38;6274479;28;20068;-87
2024/01/13 13:18:31;;;;;;;9.23;8.63;;;;;;;-145.48;100.00;64539.38;6274454;28;20504;-89
2024/01/13 13:21:33;;;;;;;7.45;7.15;;;;;;;-145.48;100.00;64539.38;6274133;28;20045;-88
2024/01/13 13:24:36;;;;;;;9.10;8.50;;;;;;;-145.48;100.00;64539.38;6274996;28;20132;-88
2024/01/13 13:27:38;;;;;;;8.60;8.18;;;;;;;-145.48;100.00;64539.38;6284049;28;20458;-89
2024/01/13 13:30:40;;;;;;;10.38;9.77;;;;;;;-145.48;100.00;64539.38;6281521;28;20062;-89
2024/01/13 13:33:43;;;;;;;9.45;8.95;;;;;;;-145.48;100.00;64539.38;6276133;28;20093;-88
2024/01/13 13:36:45;;;;;;;9.75;9.10;;;;;;;-145.48;100.00;64539.38;6276676;28;20051;-88
2024/01/13 13:39:47;;;;;;;9.52;8.57;;;;;;;-145.48;100.00;64539.38;6274412;28;20045;-89
2024/01/13 13:42:49;;;;;;;8.00;7.30;;;;;;;-145.48;100.00;64539.38;6279416;28;20056;-89
2024/01/13 13:45:51;;;;;;;10.50;9.55;;;;;;;-145.48;100.00;64539.38;6289591;28;20471;-88
2024/01/13 13:48:53;;;;;;;8.23;7.82;;;;;;;-145.48;100.00;64539.38;6280109;28;20179;-89
2024/01/13 13:51:57;;;;;;;7.95;7.45;;;;;;;-145.48;100.00;64539.38;6279832;28;20052;-88
2024/01/13 13:55:00;;;;;;;8.40;8.00;;;;;;;-145.48;100.00;64539.38;6284875;28;20699;-89